Time;durP1;ratioP1;P1;durP2;ratioP2;P2;SDS_P1;SDS_P2;PMS_P1;PMS_P2;Temp;Humidity;BMP_temperature;BMP_pressure;BME280_temperature;BME280_humidity;BME280_pressure;Samples;Min_cycle;Max_cycle;Signal;HPM_P1;HPM_P2
2023/04/12 00:01:02;;;;;;;;;;;;;;;7.48;100.00;95941.94;5067204;28;20007;-88
2023/04/12 00:03:32;;;;;;;;;;;;;;;7.54;100.00;95934.84;5066912;28;19925;-87
2023/04/12 00:06:02;;;;;;;;;;;;;;;7.51;100.00;95936.09;5073628;28;19924;-88
2023/04/12 00:08:32;;;;;;;;;;;;;;;7.54;100.00;95932.16;5058693;28;19978;-87
2023/04/12 00:11:11;;;;;;;;;;;;;;;7.57;100.00;95923.66;5062385;28;19978;-87
2023/04/12 00:13:48;;;;;;;;;;;;;;;7.56;100.00;95908.59;5065989;28;20031;-86
2023/04/12 00:19:03;;;;;;;;;;;;;;;7.56;100.00;95887.09;5048996;28;19929;-86
2023/04/12 00:21:39;;;;;;;;;;;;;;;7.54;100.00;95881.94;5068151;28;19929;-87
2023/04/12 00:24:13;;;;;;;;;;;;;;;7.58;100.00;95872.38;5074104;28;19982;-87
2023/04/12 00:26:40;;;;;;;;;;;;;;;7.60;100.00;95867.59;5066631;28;19932;-86
2023/04/12 00:29:21;;;;;;;;;;;;;;;7.62;100.00;95870.06;5055258;28;19925;-87
2023/04/12 00:31:53;;;;;;;;;;;;;;;7.62;100.00;95855.81;5056008;28;19946;-88
2023/04/12 00:34:23;;;;;;;;;;;;;;;7.53;100.00;95847.22;5059957;28;19992;-87
2023/04/12 00:36:50;;;;;;;;;;;;;;;7.49;100.00;95854.91;5067089;28;20037;-87
2023/04/12 00:39:32;;;;;;;;;;;;;;;7.50;100.00;95847.66;5069921;28;19924;-87
2023/04/12 00:42:03;;;;;;;;;;;;;;;7.46;100.00;95850.00;5065921;28;19978;-86
2023/04/12 00:44:30;;;;;;;;;;;;;;;7.46;100.00;95843.81;5059931;28;19924;-88
2023/04/12 00:47:01;;;;;;;;;;;;;;;7.46;100.00;95841.94;5066549;28;19924;-87
2023/04/12 00:49:29;;;;;;;;;;;;;;;7.50;100.00;95836.91;5064988;28;19924;-87
2023/04/12 00:51:58;;;;;;;;;;;;;;;7.49;100.00;95828.03;5059523;28;20027;-87
2023/04/12 00:54:25;;;;;;;;;;;;;;;7.41;100.00;95828.34;5069207;28;19928;-88
2023/04/12 00:56:58;;;;;;;;;;;;;;;7.45;100.00;95817.97;5076301;28;19928;-87
2023/04/12 00:59:29;;;;;;;;;;;;;;;7.45;100.00;95796.50;5078505;28;19925;-86
2023/04/12 01:01:56;;;;;;;;;;;;;;;7.42;100.00;95786.19;5078909;28;19929;-87
2023/04/12 01:04:53;;;;;;;;;;;;;;;7.40;100.00;95774.88;5066923;28;19932;-87
2023/04/12 01:07:50;;;;;;;;;;;;;;;7.37;100.00;95762.69;5056151;28;19929;-87
2023/04/12 01:16:23;;;;;;;;;;;;;;;7.42;100.00;95741.34;5065429;28;19924;-80
2023/04/12 01:18:51;;;;;;;;;;;;;;;7.38;100.00;95733.97;5067505;28;19925;-80
2023/04/12 01:21:19;;;;;;;;;;;;;;;7.40;100.00;95713.09;5064927;28;19932;-81
2023/04/12 01:24:02;;;;;;;;;;;;;;;7.32;100.00;95703.44;5070045;28;20019;-81
2023/04/12 01:26:36;;;;;;;;;;;;;;;7.27;100.00;95684.53;5080323;28;19925;-80
2023/04/12 01:29:07;;;;;;;;;;;;;;;7.27;100.00;95660.34;5085497;28;19925;-80
2023/04/12 01:31:35;;;;;;;;;;;;;;;7.23;100.00;95659.16;5072822;28;19991;-81
2023/04/12 01:34:02;;;;;;;;;;;;;;;7.20;100.00;95657.75;5069224;28;19964;-83
2023/04/12 01:36:30;;;;;;;;;;;;;;;7.17;100.00;95647.47;5069745;28;19924;-82
2023/04/12 01:38:57;;;;;;;;;;;;;;;7.16;100.00;95628.91;5059981;28;20028;-81
2023/04/12 01:41:24;;;;;;;;;;;;;;;7.12;100.00;95625.03;5078972;28;19939;-81
2023/04/12 01:43:51;;;;;;;;;;;;;;;7.12;100.00;95631.22;5088910;28;19996;-82
2023/04/12 01:46:20;;;;;;;;;;;;;;;7.21;100.00;95618.31;5069237;28;19929;-81
2023/04/12 01:48:49;;;;;;;;;;;;;;;7.24;100.00;95601.72;5094358;28;19978;-80
2023/04/12 01:51:19;;;;;;;;;;;;;;;7.27;100.00;95597.78;5087312;28;19928;-81
2023/04/12 01:53:48;;;;;;;;;;;;;;;7.29;100.00;95606.44;5074692;28;19928;-82
2023/04/12 01:56:16;;;;;;;;;;;;;;;7.29;100.00;95595.69;5078613;28;19929;-81
2023/04/12 01:58:44;;;;;;;;;;;;;;;7.28;100.00;95586.81;5071845;28;20011;-82
2023/04/12 02:01:12;;;;;;;;;;;;;;;7.32;100.00;95597.91;5086484;28;19996;-80
2023/04/12 02:03:42;;;;;;;;;;;;;;;7.34;100.00;95590.44;5073347;28;19925;-80
2023/04/12 02:06:09;;;;;;;;;;;;;;;7.32;100.00;95590.66;5077223;28;19925;-80
2023/04/12 02:08:36;;;;;;;;;;;;;;;7.31;100.00;95586.38;5061986;28;19936;-81
2023/04/12 02:11:07;;;;;;;;;;;;;;;7.32;100.00;95569.19;5069300;28;19931;-81
2023/04/12 02:13:34;;;;;;;;;;;;;;;7.36;100.00;95565.00;5065499;28;19986;-81
2023/04/12 02:16:01;;;;;;;;;;;;;;;7.33;100.00;95568.13;5050833;28;19947;-80
2023/04/12 02:18:29;;;;;;;;;;;;;;;7.30;100.00;95565.13;5068045;28;20023;-81
2023/04/12 02:20:58;;;;;;;;;;;;;;;7.30;100.00;95557.88;5048624;28;19929;-80
2023/04/12 02:23:25;;;;;;;;;;;;;;;7.31;100.00;95553.31;5048847;28;19978;-81
2023/04/12 02:25:51;;;;;;;;;;;;;;;7.30;100.00;95554.38;5046554;28;19931;-82
2023/04/12 02:28:18;;;;;;;;;;;;;;;7.29;100.00;95545.50;5049468;28;19929;-81
2023/04/12 02:30:46;;;;;;;;;;;;;;;7.33;100.00;95557.41;5079908;28;19929;-81
2023/04/12 02:33:14;;;;;;;;;;;;;;;7.35;100.00;95560.69;5049617;28;19935;-82
2023/04/12 02:35:42;;;;;;;;;;;;;;;7.37;100.00;95558.59;5060754;28;19925;-80
2023/04/12 02:38:15;;;;;;;;;;;;;;;7.44;100.00;95558.50;5037818;28;19925;-81
2023/04/12 02:40:42;;;;;;;;;;;;;;;7.39;100.00;95551.13;5072575;28;19924;-82
2023/04/12 02:43:13;;;;;;;;;;;;;;;7.36;100.00;95562.31;5066715;28;19925;-80
2023/04/12 02:45:44;;;;;;;;;;;;;;;7.36;100.00;95554.25;5049410;28;19925;-82
2023/04/12 02:48:14;;;;;;;;;;;;;;;7.37;100.00;95568.50;5048861;28;19925;-80
2023/04/12 02:50:41;;;;;;;;;;;;;;;7.39;100.00;95574.47;5047521;28;20015;-80
2023/04/12 02:53:16;;;;;;;;;;;;;;;7.36;100.00;95566.88;5046147;28;19936;-80
2023/04/12 02:55:48;;;;;;;;;;;;;;;7.32;100.00;95552.25;5062407;28;19932;-82
2023/04/12 02:58:20;;;;;;;;;;;;;;;7.25;100.00;95565.78;5047832;28;19948;-82
2023/04/12 03:00:49;;;;;;;;;;;;;;;7.23;100.00;95575.91;5051740;28;19924;-82
2023/04/12 03:03:20;;;;;;;;;;;;;;;7.21;100.00;95569.97;5047627;28;19956;-84
2023/04/12 03:05:51;;;;;;;;;;;;;;;7.19;100.00;95570.22;5048993;28;19928;-80
2023/04/12 03:08:20;;;;;;;;;;;;;;;7.21;100.00;95569.97;5067279;28;19951;-80
2023/04/12 03:10:52;;;;;;;;;;;;;;;7.26;100.00;95562.06;5066018;28;19975;-79
2023/04/12 03:13:20;;;;;;;;;;;;;;;7.28;100.00;95562.66;5042695;28;20028;-83
2023/04/12 03:15:49;;;;;;;;;;;;;;;7.24;100.00;95569.50;5062863;28;19935;-83
2023/04/12 03:18:19;;;;;;;;;;;;;;;7.28;100.00;95569.88;5047633;28;19939;-81
2023/04/12 03:20:49;;;;;;;;;;;;;;;7.30;100.00;95574.00;5062090;28;19932;-80
2023/04/12 03:23:17;;;;;;;;;;;;;;;7.30;100.00;95557.88;5048405;28;19933;-80
2023/04/12 03:25:49;;;;;;;;;;;;;;;7.24;100.00;95558.78;5063141;28;20091;-82
2023/04/12 03:28:33;;;;;;;;;;;;;;;7.23;100.00;95563.31;5042134;28;19991;-80
2023/04/12 03:31:05;;;;;;;;;;;;;;;7.23;100.00;95573.25;5046751;28;20014;-81
2023/04/12 03:33:39;;;;;;;;;;;;;;;7.22;100.00;95572.44;5065372;28;19986;-81
2023/04/12 03:36:11;;;;;;;;;;;;;;;7.26;100.00;95575.47;5048629;28;19925;-81
2023/04/12 03:38:38;;;;;;;;;;;;;;;7.28;100.00;95568.03;5045997;28;19968;-80
2023/04/12 03:41:09;;;;;;;;;;;;;;;7.21;100.00;95556.56;5049171;28;19983;-83
2023/04/12 03:43:37;;;;;;;;;;;;;;;7.13;100.00;95554.19;5063397;28;19924;-81
2023/04/12 03:46:10;;;;;;;;;;;;;;;7.16;100.00;95540.31;5052986;28;19925;-80
2023/04/12 03:48:37;;;;;;;;;;;;;;;7.22;100.00;95542.09;5063318;28;19932;-81
2023/04/12 03:51:07;;;;;;;;;;;;;;;7.21;100.00;95538.59;5043950;28;19929;-81
2023/04/12 03:53:35;;;;;;;;;;;;;;;7.18;100.00;95544.41;5040000;28;19928;-80
2023/04/12 03:56:02;;;;;;;;;;;;;;;7.20;100.00;95541.50;5064206;28;19924;-80
2023/04/12 03:58:33;;;;;;;;;;;;;;;7.20;100.00;95542.31;5046080;28;19964;-81
2023/04/12 04:01:02;;;;;;;;;;;;;;;7.21;100.00;95545.81;5056733;28;19924;-80
2023/04/12 04:03:33;;;;;;;;;;;;;;;7.16;100.00;95532.25;5047648;28;19960;-81
2023/04/12 04:06:12;;;;;;;;;;;;;;;7.17;100.00;95544.63;5047313;28;19929;-80
2023/04/12 04:08:41;;;;;;;;;;;;;;;7.13;100.00;95543.47;5048032;28;20016;-80
2023/04/12 04:11:08;;;;;;;;;;;;;;;7.17;100.00;95536.56;5044589;28;19925;-81
2023/04/12 04:13:40;;;;;;;;;;;;;;;7.16;100.00;95537.63;5046261;28;20003;-82
2023/04/12 04:16:10;;;;;;;;;;;;;;;7.19;100.00;95537.16;5041158;28;19925;-82
2023/04/12 04:18:39;;;;;;;;;;;;;;;7.21;100.00;95541.28;5046701;28;20130;-80
2023/04/12 04:21:08;;;;;;;;;;;;;;;7.23;100.00;95552.56;5046798;28;19929;-83
2023/04/12 04:23:38;;;;;;;;;;;;;;;7.27;100.00;95547.59;5045863;28;19932;-82
2023/04/12 04:26:09;;;;;;;;;;;;;;;7.29;100.00;95553.56;5046619;28;19987;-83
2023/04/12 04:28:41;;;;;;;;;;;;;;;7.28;100.00;95551.91;5045962;28;19929;-82
2023/04/12 04:31:09;;;;;;;;;;;;;;;7.33;100.00;95552.03;5053615;28;19935;-82
2023/04/12 04:33:40;;;;;;;;;;;;;;;7.33;100.00;95554.72;5044424;28;19929;-82
2023/04/12 04:36:08;;;;;;;;;;;;;;;7.35;100.00;95558.00;5048622;28;19987;-82
2023/04/12 04:38:36;;;;;;;;;;;;;;;7.27;100.00;95563.69;5039171;28;19925;-80
2023/04/12 04:41:09;;;;;;;;;;;;;;;7.25;100.00;95548.84;5056214;28;19940;-80
2023/04/12 04:43:49;;;;;;;;;;;;;;;7.26;100.00;95551.31;5031938;28;19935;-81
2023/04/12 04:46:19;;;;;;;;;;;;;;;7.32;100.00;95545.03;5067541;28;19929;-82
2023/04/12 04:48:47;;;;;;;;;;;;;;;7.33;100.00;95533.22;5049389;28;20206;-79
2023/04/12 04:51:14;;;;;;;;;;;;;;;7.37;100.00;95522.84;5063583;28;19925;-81
2023/04/12 04:53:41;;;;;;;;;;;;;;;7.43;100.00;95519.25;5044572;28;19924;-82
2023/04/12 04:56:11;;;;;;;;;;;;;;;7.45;100.00;95526.03;5060253;28;19929;-80
2023/04/12 04:58:38;;;;;;;;;;;;;;;7.44;100.00;95513.66;5049405;28;19924;-80
2023/04/12 05:01:08;;;;;;;;;;;;;;;7.40;100.00;95515.16;5070234;28;19973;-80
2023/04/12 05:03:36;;;;;;;;;;;;;;;7.33;100.00;95503.69;5049717;28;19924;-79
2023/04/12 05:06:03;;;;;;;;;;;;;;;7.35;100.00;95490.88;5055167;28;19971;-80
2023/04/12 05:08:31;;;;;;;;;;;;;;;7.38;100.00;95486.91;5060748;28;19995;-80
2023/04/12 05:10:58;;;;;;;;;;;;;;;7.44;100.00;95484.09;5067826;28;19929;-81
2023/04/12 05:13:28;;;;;;;;;;;;;;;7.50;100.00;95483.16;5066337;28;19924;-80
2023/04/12 05:15:55;;;;;;;;;;;;;;;7.51;100.00;95484.81;5068367;28;19925;-81
2023/04/12 05:18:23;;;;;;;;;;;;;;;7.47;100.00;95470.22;5050343;28;19940;-80
2023/04/12 05:20:50;;;;;;;;;;;;;;;7.46;100.00;95460.53;5051621;28;19925;-81
2023/04/12 05:23:17;;;;;;;;;;;;;;;7.50;100.00;95472.44;5050414;28;19925;-82
2023/04/12 05:25:46;;;;;;;;;;;;;;;7.58;100.00;95455.97;5052299;28;19925;-80
2023/04/12 05:28:15;;;;;;;;;;;;;;;7.60;100.00;95459.25;5053888;28;19925;-80
2023/04/12 05:30:42;;;;;;;;;;;;;;;7.68;100.00;95454.56;5065660;28;19932;-79
2023/04/12 05:33:10;;;;;;;;;;;;;;;7.69;100.00;95448.97;5048117;28;19931;-79
2023/04/12 05:35:44;;;;;;;;;;;;;;;7.69;100.00;95442.78;5059075;28;19929;-79
2023/04/12 05:38:11;;;;;;;;;;;;;;;7.68;100.00;95441.94;5049093;28;20011;-80
2023/04/12 05:40:38;;;;;;;;;;;;;;;7.71;100.00;95436.13;5052258;28;19947;-80
2023/04/12 05:43:11;;;;;;;;;;;;;;;7.75;100.00;95420.31;5065824;28;19929;-82
2023/04/12 05:45:38;;;;;;;;;;;;;;;7.77;100.00;95431.66;5046212;28;19928;-82
2023/04/12 05:48:06;;;;;;;;;;;;;;;7.81;100.00;95433.66;5045446;28;19975;-80
2023/04/12 05:50:34;;;;;;;;;;;;;;;7.88;100.00;95420.09;5050567;28;19931;-80
2023/04/12 05:53:03;;;;;;;;;;;;;;;7.89;100.00;95436.00;5050145;28;19929;-81
2023/04/12 05:55:32;;;;;;;;;;;;;;;7.90;100.00;95432.25;5068812;28;19931;-80
2023/04/12 05:58:00;;;;;;;;;;;;;;;7.96;100.00;95430.47;5049506;28;19929;-83
2023/04/12 06:00:28;;;;;;;;;;;;;;;7.93;100.00;95423.69;5044044;28;19929;-81
2023/04/12 06:02:55;;;;;;;;;;;;;;;7.95;100.00;95420.78;5052094;28;19932;-82
2023/04/12 06:05:22;;;;;;;;;;;;;;;7.96;100.00;95420.56;5055971;28;19932;-80
2023/04/12 06:07:49;;;;;;;;;;;;;;;8.02;100.00;95420.66;5052329;28;20046;-81
2023/04/12 06:10:17;;;;;;;;;;;;;;;8.03;100.00;95423.09;5052375;28;19925;-81
2023/04/12 06:12:47;;;;;;;;;;;;;;;8.05;100.00;95410.25;5047989;28;19929;-80
2023/04/12 06:15:14;;;;;;;;;;;;;;;8.08;100.00;95400.91;5048335;28;19993;-81
2023/04/12 06:17:41;;;;;;;;;;;;;;;8.10;100.00;95391.53;5062615;28;19929;-81
2023/04/12 06:20:09;;;;;;;;;;;;;;;8.11;100.00;95368.97;5066211;28;19940;-80
2023/04/12 06:22:37;;;;;;;;;;;;;;;8.19;100.00;95368.59;5048735;28;19925;-81
2023/04/12 06:25:07;;;;;;;;;;;;;;;8.35;100.00;95369.72;5059252;28;19929;-81
2023/04/12 06:27:36;;;;;;;;;;;;;;;8.44;100.00;95354.00;5047447;28;19948;-81
2023/04/12 06:30:02;;;;;;;;;;;;;;;8.42;100.00;95348.88;5046555;28;19924;-80
2023/04/12 06:32:32;;;;;;;;;;;;;;;8.45;100.00;95339.50;5065137;28;19925;-79
2023/04/12 06:35:00;;;;;;;;;;;;;;;8.52;100.00;95316.78;5049057;28;19933;-80
2023/04/12 06:37:27;;;;;;;;;;;;;;;8.56;100.00;95303.66;5066900;28;19929;-81
2023/04/12 06:39:54;;;;;;;;;;;;;;;8.65;100.00;95297.66;5048062;28;19932;-80
2023/04/12 06:42:21;;;;;;;;;;;;;;;8.71;100.00;95296.66;5062931;28;19926;-80
2023/04/12 06:44:49;;;;;;;;;;;;;;;8.78;100.00;95299.19;5058542;28;19932;-80
2023/04/12 06:47:15;;;;;;;;;;;;;;;8.92;100.00;95270.91;5066763;28;19943;-81
2023/04/12 06:49:42;;;;;;;;;;;;;;;9.03;100.00;95251.13;5052529;28;19925;-80
2023/04/12 06:52:09;;;;;;;;;;;;;;;9.22;100.00;95258.94;5053754;28;19964;-81
2023/04/12 06:54:36;;;;;;;;;;;;;;;9.53;100.00;95254.78;5063157;28;19929;-81
2023/04/12 06:57:03;;;;;;;;;;;;;;;9.77;100.00;95239.97;5046336;28;19928;-80
2023/04/12 06:59:30;;;;;;;;;;;;;;;10.03;100.00;95230.28;5050647;28;19928;-81
2023/04/12 07:01:58;;;;;;;;;;;;;;;10.14;100.00;95218.53;5059182;28;20015;-80
2023/04/12 07:04:24;;;;;;;;;;;;;;;10.33;100.00;95214.44;5056921;28;19924;-80
2023/04/12 07:06:51;;;;;;;;;;;;;;;10.42;100.00;95209.38;5053393;28;19924;-82
2023/04/12 07:09:18;;;;;;;;;;;;;;;10.46;100.00;95215.91;5054963;28;19929;-82
2023/04/12 07:11:45;;;;;;;;;;;;;;;10.57;100.00;95198.72;5076813;28;20007;-80
2023/04/12 07:14:11;;;;;;;;;;;;;;;10.70;100.00;95210.97;5047639;28;19933;-81
2023/04/12 07:16:38;;;;;;;;;;;;;;;10.84;100.00;95201.34;5046807;28;19925;-81
2023/04/12 07:19:07;;;;;;;;;;;;;;;11.00;100.00;95211.16;5048891;28;19975;-82
2023/04/12 07:21:33;;;;;;;;;;;;;;;11.07;100.00;95210.94;5046271;28;19925;-80
2023/04/12 07:24:00;;;;;;;;;;;;;;;11.00;100.00;95211.16;5042637;28;19936;-80
2023/04/12 07:26:27;;;;;;;;;;;;;;;10.89;100.00;95204.88;5047588;28;19931;-81
2023/04/12 07:28:54;;;;;;;;;;;;;;;10.89;100.00;95187.84;5066266;28;19936;-81
2023/04/12 07:31:21;;;;;;;;;;;;;;;10.85;100.00;95205.66;5060705;28;19932;-81
2023/04/12 07:33:47;;;;;;;;;;;;;;;10.76;100.00;95201.81;5049472;28;19932;-81
2023/04/12 07:36:19;;;;;;;;;;;;;;;10.63;100.00;95213.91;5048688;28;19932;-83
2023/04/12 07:38:46;;;;;;;;;;;;;;;10.45;100.00;95230.47;5063022;28;19949;-81
2023/04/12 07:41:12;;;;;;;;;;;;;;;10.28;100.00;95230.59;5068768;28;19931;-81
2023/04/12 07:43:39;;;;;;;;;;;;;;;10.10;100.00;95234.41;5066788;28;19925;-82
2023/04/12 07:46:07;;;;;;;;;;;;;;;10.05;100.00;95236.22;5060319;28;19925;-80
2023/04/12 07:48:34;;;;;;;;;;;;;;;10.09;100.00;95234.66;5041640;28;19933;-80
2023/04/12 07:51:01;;;;;;;;;;;;;;;10.14;100.00;95237.41;5063200;28;19925;-80
2023/04/12 07:53:30;;;;;;;;;;;;;;;10.20;100.00;95221.06;5049813;28;20018;-82
2023/04/12 07:55:56;;;;;;;;;;;;;;;10.33;100.00;95216.31;5062958;28;19994;-82
2023/04/12 07:58:24;;;;;;;;;;;;;;;10.37;100.00;95223.66;5065699;28;19925;-82
2023/04/12 08:00:52;;;;;;;;;;;;;;;10.35;100.00;95223.09;5061756;28;20773;-81
2023/04/12 08:03:19;;;;;;;;;;;;;;;10.46;100.00;95226.69;5063853;28;19970;-83
2023/04/12 08:05:51;;;;;;;;;;;;;;;10.45;100.00;95212.41;5061372;28;19964;-81
2023/04/12 08:08:18;;;;;;;;;;;;;;;10.50;100.00;95206.22;5065176;28;19933;-83
2023/04/12 08:10:46;;;;;;;;;;;;;;;10.49;100.00;95218.06;5065645;28;19935;-83
2023/04/12 08:13:13;;;;;;;;;;;;;;;10.55;100.00;95211.63;5044708;28;19929;-82
2023/04/12 08:15:42;;;;;;;;;;;;;;;10.57;100.00;95209.50;5045206;28;19967;-82
2023/04/12 08:18:09;;;;;;;;;;;;;;;10.63;100.00;95223.88;5045359;28;19925;-82
2023/04/12 08:20:39;;;;;;;;;;;;;;;10.73;100.00;95210.44;5060359;28;20006;-81
2023/04/12 08:23:06;;;;;;;;;;;;;;;10.73;100.00;95195.03;5039428;28;19975;-82
2023/04/12 08:25:33;;;;;;;;;;;;;;;10.79;100.00;95193.22;5060404;28;19925;-82
2023/04/12 08:28:02;;;;;;;;;;;;;;;10.81;100.00;95197.25;5046975;28;19925;-83
2023/04/12 08:30:29;;;;;;;;;;;;;;;10.83;100.00;95200.53;5062848;28;19974;-82
2023/04/12 08:32:56;;;;;;;;;;;;;;;10.82;100.00;95198.06;5057696;28;19932;-80
2023/04/12 08:35:23;;;;;;;;;;;;;;;10.87;100.00;95179.22;5053470;28;19932;-80
2023/04/12 08:37:50;;;;;;;;;;;;;;;10.93;100.00;95170.06;5070175;28;19972;-80
2023/04/12 08:40:17;;;;;;;;;;;;;;;11.01;100.00;95169.59;5044548;28;19925;-83
2023/04/12 08:42:44;;;;;;;;;;;;;;;11.06;100.00;95161.50;5050352;28;19931;-84
2023/04/12 08:45:12;;;;;;;;;;;;;;;11.06;100.00;95150.69;5064261;28;19924;-87
2023/04/12 08:47:41;;;;;;;;;;;;;;;11.15;100.00;95141.00;5068155;28;19928;-89
2023/04/12 08:50:09;;;;;;;;;;;;;;;11.08;100.00;95135.03;5078188;28;19932;-87
2023/04/12 08:52:37;;;;;;;;;;;;;;;11.25;100.00;95119.44;5071700;28;19929;-89
2023/04/12 08:55:04;;;;;;;;;;;;;;;11.38;100.00;95108.16;5054264;28;20020;-89
2023/04/12 08:57:32;;;;;;;;;;;;;;;11.53;100.00;95106.56;5049180;28;19929;-88
2023/04/12 09:00:00;;;;;;;;;;;;;;;11.75;100.00;95088.25;5051334;28;19962;-85
2023/04/12 09:02:28;;;;;;;;;;;;;;;11.92;100.00;95056.38;5052542;28;19956;-87
2023/04/12 09:04:55;;;;;;;;;;;;;;;12.11;100.00;95065.59;5068399;28;19966;-86
2023/04/12 09:07:26;;;;;;;;;;;;;;;12.35;100.00;95065.03;5066170;28;19933;-86
2023/04/12 09:09:53;;;;;;;;;;;;;;;12.63;100.00;95060.94;5050451;28;19935;-86
2023/04/12 09:12:22;;;;;;;;;;;;;;;13.56;100.00;95051.09;5046721;28;19929;-87
2023/04/12 09:15:04;;;;;;;;;;;;;;;14.45;90.82;95038.25;5070458;28;19924;-83
2023/04/12 09:17:35;;;;;;;;;;;;;;;15.06;84.55;95011.19;5050350;28;19932;-81
2023/04/12 09:20:03;;;;;;;;;;;;;;;15.29;88.35;95034.03;5063807;28;19967;-82
2023/04/12 09:22:34;;;;;;;;;;;;;;;15.55;80.75;95044.63;5043660;28;19937;-85
2023/04/12 09:25:00;;;;;;;;;;;;;;;15.82;76.59;95031.94;5045013;28;19984;-81
2023/04/12 09:27:28;;;;;;;;;;;;;;;15.98;73.71;95020.84;5044306;28;20011;-82
2023/04/12 09:30:06;;;;;;;;;;;;;;;16.08;72.47;95037.00;5066300;28;19929;-83
2023/04/12 09:32:35;;;;;;;;;;;;;;;16.17;74.13;95036.03;5054543;28;19925;-82
2023/04/12 09:35:04;;;;;;;;;;;;;;;16.28;69.50;95014.88;5069199;28;19925;-82
2023/04/12 09:37:31;;;;;;;;;;;;;;;16.43;77.54;95033.69;5065521;28;19929;-82
2023/04/12 09:40:03;;;;;;;;;;;;;;;16.32;76.54;95018.66;5049300;28;20023;-82
2023/04/12 09:42:30;;;;;;;;;;;;;;;16.32;74.53;95021.38;5057342;28;19933;-82
2023/04/12 09:44:57;;;;;;;;;;;;;;;16.27;78.11;95035.88;5048303;28;19940;-81
2023/04/12 09:47:36;;;;;;;;;;;;;;;16.15;83.46;95035.53;5051424;28;19939;-82
2023/04/12 09:50:06;;;;;;;;;;;;;;;15.46;100.00;95019.94;5066673;28;19928;-82
2023/04/12 09:52:35;;;;;;;;;;;;;;;14.89;100.00;95018.19;5066887;28;19972;-83
2023/04/12 09:55:03;;;;;;;;;;;;;;;14.29;100.00;95026.66;5048407;28;19929;-81
2023/04/12 09:57:30;;;;;;;;;;;;;;;14.39;100.00;95012.22;5048683;28;19931;-83
2023/04/12 09:59:59;;;;;;;;;;;;;;;14.32;100.00;95022.56;5048343;28;19925;-82
2023/04/12 10:02:27;;;;;;;;;;;;;;;14.34;100.00;95018.47;5049804;28;19932;-82
2023/04/12 10:04:54;;;;;;;;;;;;;;;14.39;100.00;95013.03;5044657;28;19971;-82
2023/04/12 10:07:22;;;;;;;;;;;;;;;14.51;100.00;95017.25;5063095;28;20046;-83
2023/04/12 10:09:49;;;;;;;;;;;;;;;14.62;100.00;95013.34;5047152;28;19936;-84
2023/04/12 10:12:17;;;;;;;;;;;;;;;14.53;100.00;95004.22;5046393;28;19925;-87
2023/04/12 10:14:44;;;;;;;;;;;;;;;14.61;100.00;94995.44;5065657;28;19925;-86
2023/04/12 10:17:12;;;;;;;;;;;;;;;14.67;100.00;94986.94;5064481;28;19933;-86
2023/04/12 10:19:39;;;;;;;;;;;;;;;14.70;100.00;94988.28;5072160;28;19925;-86
2023/04/12 10:22:06;;;;;;;;;;;;;;;14.55;100.00;94988.41;5049768;28;19924;-86
2023/04/12 10:24:35;;;;;;;;;;;;;;;14.63;100.00;94990.53;5048051;28;19944;-86
2023/04/12 10:27:03;;;;;;;;;;;;;;;14.91;100.00;94999.69;5062644;28;19936;-86
2023/04/12 10:29:36;;;;;;;;;;;;;;;15.06;100.00;94999.50;5047186;28;19936;-85
2023/04/12 10:32:18;;;;;;;;;;;;;;;15.37;100.00;94999.94;5049835;28;19928;-83
2023/04/12 10:34:50;;;;;;;;;;;;;;;15.49;100.00;94994.84;5053060;28;19947;-83
2023/04/12 10:37:17;;;;;;;;;;;;;;;15.66;99.66;94995.19;5065053;28;19972;-83
2023/04/12 10:39:52;;;;;;;;;;;;;;;15.78;95.73;95001.00;5063503;28;19933;-83
2023/04/12 10:42:23;;;;;;;;;;;;;;;15.72;94.92;94994.03;5046174;28;19933;-84
2023/04/12 10:44:51;;;;;;;;;;;;;;;15.68;92.53;95006.59;5054915;28;19925;-84
2023/04/12 10:47:42;;;;;;;;;;;;;;;15.59;94.75;95000.19;5048914;28;19925;-86
2023/04/12 10:50:23;;;;;;;;;;;;;;;15.53;90.31;95004.06;5049172;28;19947;-87
2023/04/12 10:53:05;;;;;;;;;;;;;;;15.48;91.70;95009.59;5066411;28;19932;-86
2023/04/12 10:55:34;;;;;;;;;;;;;;;15.43;88.73;95012.34;5067425;28;19925;-88
2023/04/12 10:58:01;;;;;;;;;;;;;;;15.43;87.57;95018.59;5051084;28;19924;-87
2023/04/12 11:00:50;;;;;;;;;;;;;;;15.45;84.37;95023.75;5046771;28;19932;-89
2023/04/12 11:03:20;;;;;;;;;;;;;;;15.48;82.71;95012.31;5072448;28;20008;-84
2023/04/12 11:06:00;;;;;;;;;;;;;;;15.54;83.36;95007.63;5064429;28;20011;-87
2023/04/12 11:08:57;;;;;;;;;;;;;;;15.58;81.31;95017.59;5023901;28;19993;-88
2023/04/12 11:11:27;;;;;;;;;;;;;;;15.55;79.94;95001.09;5045146;28;19933;-87
2023/04/12 11:13:54;;;;;;;;;;;;;;;15.58;79.53;95017.59;5060035;28;19932;-88
2023/04/12 11:16:21;;;;;;;;;;;;;;;15.51;77.09;95020.66;5048251;28;19925;-82
2023/04/12 11:18:49;;;;;;;;;;;;;;;15.61;77.02;95024.38;5041776;28;19968;-84
2023/04/12 11:21:16;;;;;;;;;;;;;;;15.58;75.23;95028.50;5047531;28;19924;-82
2023/04/12 11:23:43;;;;;;;;;;;;;;;15.66;75.14;95030.56;5047221;28;19933;-83
2023/04/12 11:26:10;;;;;;;;;;;;;;;15.63;74.83;95035.78;5066203;28;19928;-84
2023/04/12 11:28:38;;;;;;;;;;;;;;;15.75;73.56;95025.25;5048892;28;19932;-84
2023/04/12 11:31:07;;;;;;;;;;;;;;;15.86;73.71;95024.00;5046311;28;19929;-84
2023/04/12 11:33:35;;;;;;;;;;;;;;;15.83;73.91;95030.84;5044023;28;19929;-83
2023/04/12 11:36:06;;;;;;;;;;;;;;;15.84;72.47;95037.91;5047758;28;19967;-82
2023/04/12 11:38:34;;;;;;;;;;;;;;;15.84;74.03;95007.16;5049665;28;19928;-83
2023/04/12 11:41:01;;;;;;;;;;;;;;;15.92;71.43;95016.56;5050915;28;19925;-84
2023/04/12 11:43:28;;;;;;;;;;;;;;;15.99;71.43;95012.34;5046656;28;19933;-83
2023/04/12 11:46:02;;;;;;;;;;;;;;;16.07;68.51;95019.06;5046436;28;20006;-83
2023/04/12 11:48:29;;;;;;;;;;;;;;;16.23;69.57;95018.53;5047715;28;19948;-82
2023/04/12 11:50:56;;;;;;;;;;;;;;;16.36;69.80;95016.13;5032364;28;20018;-83
2023/04/12 11:53:27;;;;;;;;;;;;;;;16.54;67.74;95023.44;5045091;28;19982;-83
2023/04/12 11:55:55;;;;;;;;;;;;;;;16.55;66.92;95008.72;5058733;28;19970;-83
2023/04/12 11:58:22;;;;;;;;;;;;;;;16.55;67.45;95004.06;5056459;28;19931;-83
2023/04/12 12:00:50;;;;;;;;;;;;;;;16.60;67.82;95003.97;5052776;28;19929;-85
2023/04/12 12:03:18;;;;;;;;;;;;;;;16.52;67.77;95015.56;5046399;28;19979;-83
2023/04/12 12:05:46;;;;;;;;;;;;;;;16.48;68.10;95006.38;5048169;28;19925;-83
2023/04/12 12:08:13;;;;;;;;;;;;;;;16.50;69.20;95003.34;5065644;28;19932;-84
2023/04/12 12:10:48;;;;;;;;;;;;;;;16.50;68.16;95003.34;5061381;28;19932;-83
2023/04/12 12:13:16;;;;;;;;;;;;;;;16.51;67.82;95003.03;5036730;28;19935;-83
2023/04/12 12:15:44;;;;;;;;;;;;;;;16.59;68.82;95006.97;5047249;28;19986;-81
2023/04/12 12:18:14;;;;;;;;;;;;;;;16.54;68.55;95007.91;5052814;28;19969;-82
2023/04/12 12:20:43;;;;;;;;;;;;;;;16.46;69.84;95019.47;5048713;28;19925;-83
2023/04/12 12:23:16;;;;;;;;;;;;;;;16.36;70.17;95030.56;5049589;28;19925;-83
2023/04/12 12:25:45;;;;;;;;;;;;;;;16.22;71.13;95030.53;5056179;28;19931;-83
2023/04/12 12:28:12;;;;;;;;;;;;;;;16.12;74.49;95008.91;5050320;28;19930;-83
2023/04/12 12:30:40;;;;;;;;;;;;;;;16.18;72.70;95017.78;5063186;28;19979;-84
2023/04/12 12:33:08;;;;;;;;;;;;;;;16.20;73.80;95018.28;5057865;28;19932;-84
2023/04/12 12:35:36;;;;;;;;;;;;;;;16.34;72.26;95018.31;5066432;28;19925;-84
2023/04/12 12:38:07;;;;;;;;;;;;;;;16.29;72.11;95016.50;5050400;28;19932;-85
2023/04/12 12:40:37;;;;;;;111.47;83.22;;;;;;;16.26;71.88;95019.81;5047481;28;20353;-84
2023/04/12 12:43:07;;;;;;;;;;;;;;;16.26;73.93;95034.25;5046540;28;20206;-84
2023/04/12 12:45:35;;;;;;;;;;;;;;;16.20;73.14;95032.72;5046459;28;19925;-84
2023/04/12 12:48:02;;;;;;;;;;;;;;;16.18;73.95;95036.84;5038261;28;19927;-83
2023/04/12 12:50:32;;;;;;;;;;;;;;;16.05;75.14;95032.16;5051023;28;19927;-83
2023/04/12 12:53:02;;;;;;;;;;;;;;;15.94;74.47;95041.59;5049296;28;19928;-83
2023/04/12 12:55:31;;;;;;;;;;;;;;;15.88;75.30;95033.50;5047348;28;19921;-84
2023/04/12 12:57:58;;;;;;;;;;;;;;;15.74;76.81;95038.06;5046200;28;19933;-84
2023/04/12 13:00:26;;;;;;;;;;;;;;;15.64;77.60;95035.50;5056164;28;19924;-83
2023/04/12 13:02:52;;;;;;;;;;;;;;;15.63;79.86;95035.78;5046563;28;19992;-83